createdAt,value
2022-08-05T00:01:35.495Z,13.70
2022-08-05T00:04:03.351Z,13.60
2022-08-05T00:06:33.193Z,13.59
2022-08-05T00:09:00.981Z,13.50
2022-08-05T00:11:34.846Z,13.42
2022-08-05T00:14:02.431Z,13.43
2022-08-05T00:16:52.743Z,12.97
2022-08-05T00:19:21.462Z,12.68
2022-08-05T00:21:49.093Z,12.82
2022-08-05T00:24:16.132Z,12.86
2022-08-05T00:26:51.987Z,13.02
2022-08-05T00:29:22.680Z,13.06
2022-08-05T00:31:53.885Z,12.95
2022-08-05T00:34:55.320Z,12.76
2022-08-05T00:37:24.868Z,12.77
2022-08-05T00:39:57.884Z,12.79
2022-08-05T00:42:36.840Z,12.86
2022-08-05T00:45:05.074Z,12.85
2022-08-05T00:47:56.553Z,12.90
2022-08-05T00:50:22.303Z,12.70
2022-08-05T00:52:52.127Z,12.80
2022-08-05T00:55:20.016Z,12.88
2022-08-05T00:57:55.319Z,12.97
2022-08-05T01:00:25.929Z,12.96
2022-08-05T01:02:53.058Z,12.94
2022-08-05T01:05:19.730Z,13.03
2022-08-05T01:08:40.028Z,12.98
2022-08-05T01:10:38.275Z,12.84
2022-08-05T01:13:13.318Z,12.78
2022-08-05T01:15:48.781Z,12.89
2022-08-05T01:18:20.027Z,12.86
2022-08-05T01:21:06.810Z,12.89
2022-08-05T01:23:39.504Z,12.89
2022-08-05T01:26:26.994Z,12.88
2022-08-05T01:29:06.733Z,12.82
2022-08-05T01:31:42.715Z,12.82
2022-08-05T01:34:20.734Z,12.84
2022-08-05T01:36:49.370Z,12.82
2022-08-05T01:39:46.211Z,12.77
2022-08-05T01:42:03.350Z,12.82
2022-08-05T01:44:34.198Z,12.85
2022-08-05T01:47:02.538Z,12.99
2022-08-05T01:50:01.335Z,13.01
2022-08-05T01:52:21.231Z,13.06
2022-08-05T01:55:09.211Z,13.18
2022-08-05T01:58:18.777Z,13.30
2022-08-05T02:00:30.730Z,13.23
2022-08-05T02:03:04.389Z,13.11
2022-08-05T02:05:34.150Z,13.24
2022-08-05T02:08:02.914Z,13.32
2022-08-05T02:10:33.108Z,13.36
2022-08-05T02:13:16.100Z,13.10
2022-08-05T02:16:06.579Z,13.28
2022-08-05T02:18:42.867Z,13.36
2022-08-05T02:21:15.327Z,13.41
2022-08-05T02:23:43.704Z,13.45
2022-08-05T02:26:13.904Z,13.38
2022-08-05T02:28:45.962Z,13.35
2022-08-05T02:31:16.567Z,13.35
2022-08-05T02:33:50.023Z,13.38
2022-08-05T02:36:27.424Z,13.34
2022-08-05T02:38:56.306Z,13.25
2022-08-05T02:41:28.753Z,13.28
2022-08-05T02:44:13.307Z,13.23
2022-08-05T02:46:58.827Z,13.08
2022-08-05T02:49:37.143Z,12.80
2022-08-05T02:52:29.666Z,13.02
2022-08-05T02:54:58.027Z,13.05
2022-08-05T02:58:09.883Z,12.89
2022-08-05T03:00:16.744Z,12.94
2022-08-05T03:02:45.391Z,13.08
2022-08-05T03:05:12.438Z,13.17
2022-08-05T03:08:07.045Z,13.21
2022-08-05T03:10:29.279Z,13.27
2022-08-05T03:15:24.165Z,13.35
2022-08-05T03:17:55.917Z,13.29
2022-08-05T03:20:24.499Z,13.20
2022-08-05T03:22:51.987Z,13.22
2022-08-05T03:25:32.932Z,13.19
2022-08-05T03:28:10.743Z,13.24
2022-08-05T03:30:44.337Z,13.26
2022-08-05T03:33:13.982Z,13.33
2022-08-05T03:35:41.993Z,13.30
2022-08-05T03:38:11.265Z,13.27
2022-08-05T03:40:45.400Z,13.25
2022-08-05T03:44:08.881Z,13.21
2022-08-05T03:46:03.070Z,13.17
2022-08-05T03:48:30.053Z,13.18
2022-08-05T03:52:38.779Z,13.22
2022-08-05T03:55:07.228Z,13.20
2022-08-05T03:56:58.838Z,13.20
2022-08-05T03:59:47.703Z,13.28
2022-08-05T04:02:38.825Z,13.31
2022-08-05T04:05:10.325Z,13.15
2022-08-05T04:07:57.615Z,13.05
2022-08-05T04:10:27.519Z,12.79
2022-08-05T04:12:58.830Z,12.60
2022-08-05T04:15:26.321Z,12.27
2022-08-05T04:17:57.145Z,12.09
2022-08-05T04:20:26.863Z,11.98
2022-08-05T04:22:53.502Z,12.30
2022-08-05T04:25:20.186Z,12.38
2022-08-05T04:28:11.361Z,12.42
2022-08-05T04:30:39.296Z,12.26
2022-08-05T04:33:06.304Z,12.18
2022-08-05T04:36:15.701Z,12.20
2022-08-05T04:38:20.886Z,12.23
2022-08-05T04:40:50.770Z,12.32
2022-08-05T04:43:17.665Z,12.34
2022-08-05T04:45:55.033Z,12.33
2022-08-05T04:48:28.145Z,12.27
2022-08-05T04:51:02.863Z,12.32
2022-08-05T04:53:38.878Z,12.31
2022-08-05T04:56:33.382Z,12.47
2022-08-05T04:58:53.440Z,12.54
2022-08-05T05:02:05.970Z,12.52
2022-08-05T05:04:06.806Z,12.54
2022-08-05T05:06:35.979Z,12.42
2022-08-05T05:09:14.260Z,12.49
2022-08-05T05:11:53.094Z,12.43
2022-08-05T05:14:27.810Z,12.42
2022-08-05T05:16:59.521Z,12.50
2022-08-05T05:19:27.494Z,12.44
2022-08-05T05:22:22.782Z,12.38
2022-08-05T05:24:57.429Z,12.46
2022-08-05T05:27:41.244Z,12.47
2022-08-05T05:30:08.744Z,12.52
2022-08-05T05:32:55.561Z,12.54
2022-08-05T05:35:23.130Z,12.68
2022-08-05T05:38:00.068Z,12.57
2022-08-05T05:40:29.518Z,12.58
2022-08-05T05:42:56.784Z,12.74
2022-08-05T05:45:24.691Z,12.67
2022-08-05T05:48:05.360Z,12.71
2022-08-05T05:50:43.878Z,12.84
2022-08-05T05:53:22.300Z,12.91
2022-08-05T05:55:52.060Z,13.02
2022-08-05T05:58:30.174Z,12.95
2022-08-05T06:01:02.473Z,13.04
2022-08-05T06:03:53.845Z,13.20
2022-08-05T06:06:28.047Z,13.21
2022-08-05T06:08:59.680Z,13.03
2022-08-05T06:11:26.386Z,13.17
2022-08-05T06:13:55.794Z,13.19
2022-08-05T06:16:29.067Z,13.32
2022-08-05T06:19:00.983Z,13.80
2022-08-05T06:21:35.715Z,13.89
2022-08-05T06:24:04.000Z,13.94
2022-08-05T06:26:31.870Z,13.90
2022-08-05T06:29:03.255Z,13.65
2022-08-05T06:31:33.580Z,13.64
2022-08-05T06:34:06.086Z,13.84
2022-08-05T06:36:37.419Z,13.83
2022-08-05T06:39:19.868Z,14.08
2022-08-05T06:41:49.537Z,15.02
2022-08-05T06:44:16.136Z,15.15
2022-08-05T06:46:44.326Z,15.31
2022-08-05T06:49:11.008Z,15.09
2022-08-05T06:51:40.862Z,15.11
2022-08-05T06:54:08.023Z,15.33
2022-08-05T06:56:38.424Z,16.13
2022-08-05T06:59:08.495Z,16.33
2022-08-05T07:01:36.682Z,16.54
2022-08-05T07:04:03.499Z,17.13
2022-08-05T07:06:30.391Z,17.67
2022-08-05T07:08:59.101Z,17.94
2022-08-05T07:11:25.810Z,17.58
2022-08-05T07:14:15.504Z,17.31
2022-08-05T07:18:08.484Z,17.12
2022-08-05T07:20:16.865Z,16.94
2022-08-05T07:22:28.771Z,16.41
2022-08-05T07:25:22.480Z,17.07
2022-08-05T07:27:57.543Z,17.43
2022-08-05T07:30:31.697Z,17.45
2022-08-05T07:32:59.876Z,17.83
2022-08-05T07:36:02.939Z,18.42
2022-08-05T07:38:32.306Z,18.30
2022-08-05T07:41:04.505Z,18.50
2022-08-05T07:43:47.002Z,19.23
2022-08-05T07:46:24.348Z,19.11
2022-08-05T07:49:01.517Z,19.06
2022-08-05T07:51:40.353Z,19.19
2022-08-05T07:54:08.469Z,19.43
2022-08-05T07:57:00.323Z,19.14
2022-08-05T07:59:38.981Z,19.19
2022-08-05T08:02:16.286Z,19.39
2022-08-05T08:04:45.391Z,18.19
2022-08-05T08:07:12.561Z,17.60
2022-08-05T08:09:39.119Z,17.65
2022-08-05T08:12:16.489Z,17.68
2022-08-05T08:14:52.635Z,18.13
2022-08-05T08:17:19.221Z,18.19
2022-08-05T08:20:22.605Z,18.64
2022-08-05T08:22:35.376Z,18.97
2022-08-05T08:25:03.230Z,19.10
2022-08-05T08:27:35.656Z,19.28
2022-08-05T08:30:29.394Z,19.50
2022-08-05T08:32:58.493Z,20.14
2022-08-05T08:35:35.052Z,20.67
2022-08-05T08:38:07.866Z,20.39
2022-08-05T08:40:35.339Z,20.27
2022-08-05T08:45:16.226Z,19.32
2022-08-05T08:45:50.831Z,19.80
2022-08-05T08:48:41.427Z,20.10
2022-08-05T08:51:22.350Z,19.39
2022-08-05T08:53:53.466Z,19.66
2022-08-05T08:56:22.190Z,20.00
2022-08-05T08:58:49.551Z,19.96
2022-08-05T09:01:18.812Z,20.01
2022-08-05T09:03:55.071Z,20.33
2022-08-05T09:06:24.196Z,20.46
2022-08-05T09:08:55.114Z,20.21
2022-08-05T09:11:51.005Z,19.45
2022-08-05T09:14:56.618Z,19.52
2022-08-05T09:16:55.821Z,19.80
2022-08-05T09:19:24.739Z,20.47
2022-08-05T09:22:23.427Z,21.34
2022-08-05T09:24:42.643Z,21.38
2022-08-05T09:27:09.755Z,21.00
2022-08-05T09:29:47.908Z,20.43
2022-08-05T09:32:45.715Z,20.32
2022-08-05T09:35:09.188Z,19.64
2022-08-05T09:38:17.541Z,19.72
2022-08-05T09:40:32.861Z,19.10
2022-08-05T09:43:00.249Z,19.03
2022-08-05T09:46:07.237Z,19.23
2022-08-05T09:48:27.250Z,19.35
2022-08-05T09:50:59.559Z,19.62
2022-08-05T09:53:53.109Z,19.75
2022-08-05T09:56:14.104Z,20.16
2022-08-05T09:58:41.979Z,19.86
2022-08-05T10:01:15.405Z,19.60
2022-08-05T10:04:16.118Z,20.10
2022-08-05T10:06:54.978Z,19.84
2022-08-05T10:09:28.071Z,18.93
2022-08-05T10:12:30.169Z,18.66
2022-08-05T10:14:54.552Z,18.86
2022-08-05T10:17:37.722Z,19.46
2022-08-05T10:20:09.960Z,19.55
2022-08-05T10:22:48.556Z,19.37
2022-08-05T10:25:15.706Z,19.65
2022-08-05T10:28:13.636Z,20.06
2022-08-05T10:31:20.945Z,20.82
2022-08-05T10:33:15.846Z,20.81
2022-08-05T10:35:44.212Z,20.82
2022-08-05T10:38:12.655Z,20.67
2022-08-05T10:40:45.021Z,20.49
2022-08-05T10:43:21.751Z,20.03
2022-08-05T10:46:06.670Z,19.78
2022-08-05T10:48:38.456Z,19.72
2022-08-05T10:51:22.101Z,19.23
2022-08-05T10:53:58.571Z,20.17
2022-08-05T10:56:36.643Z,20.64
2022-08-05T10:59:07.086Z,20.40
2022-08-05T11:01:54.674Z,20.56
2022-08-05T11:04:30.947Z,20.72
2022-08-05T11:07:01.336Z,19.80
2022-08-05T11:09:45.418Z,19.98
2022-08-05T11:12:32.109Z,20.32
2022-08-05T11:15:19.695Z,20.29
2022-08-05T11:17:57.130Z,20.08
2022-08-05T11:20:43.931Z,20.08
2022-08-05T11:23:33.030Z,20.15
2022-08-05T11:26:32.114Z,19.16
2022-08-05T11:29:11.761Z,19.23
2022-08-05T11:31:57.608Z,18.97
2022-08-05T11:34:39.286Z,19.28
2022-08-05T11:38:30.912Z,19.20
2022-08-05T11:40:00.305Z,19.54
2022-08-05T11:42:31.857Z,20.01
2022-08-05T11:45:03.302Z,20.21
2022-08-05T11:47:48.808Z,20.90
2022-08-05T11:50:16.772Z,20.07
2022-08-05T11:52:46.046Z,20.30
2022-08-05T11:55:15.661Z,20.66
2022-08-05T11:58:10.061Z,20.48
2022-08-05T12:00:32.271Z,20.13
2022-08-05T12:03:24.117Z,20.01
2022-08-05T12:06:05.996Z,20.07
2022-08-05T12:08:51.254Z,19.94
2022-08-05T12:11:22.603Z,19.70
2022-08-05T12:13:55.287Z,19.90
2022-08-05T12:16:27.249Z,20.20
2022-08-05T12:18:55.957Z,20.74
2022-08-05T12:21:32.638Z,20.78
2022-08-05T12:24:07.591Z,20.15
2022-08-05T12:27:00.582Z,20.69
2022-08-05T12:29:37.994Z,20.97
2022-08-05T12:32:07.511Z,20.60
2022-08-05T12:34:37.373Z,20.13
2022-08-05T12:37:29.732Z,20.03
2022-08-05T12:40:03.364Z,20.16
2022-08-05T12:42:36.905Z,20.53
2022-08-05T12:45:08.796Z,20.52
2022-08-05T12:47:37.198Z,21.02
2022-08-05T12:50:17.734Z,21.02
2022-08-05T12:52:56.659Z,20.58
2022-08-05T12:55:28.380Z,20.40
2022-08-05T12:58:38.416Z,20.40
2022-08-05T13:02:01.962Z,20.10
2022-08-05T13:03:42.233Z,20.01
2022-08-05T13:06:13.667Z,19.44
2022-08-05T13:08:41.102Z,19.06
2022-08-05T13:11:18.195Z,18.86
2022-08-05T13:14:09.879Z,19.13
2022-08-05T13:16:45.414Z,19.64
2022-08-05T13:19:12.967Z,19.68
2022-08-05T13:21:48.016Z,20.19
2022-08-05T13:24:27.500Z,20.72
2022-08-05T13:40:16.616Z,19.84
2022-08-05T13:42:41.323Z,19.42
2022-08-05T13:45:08.729Z,18.57
2022-08-05T13:48:09.961Z,18.46
2022-08-05T13:50:24.364Z,18.28
2022-08-05T13:52:51.127Z,17.78
2022-08-05T13:55:41.762Z,17.91
2022-08-05T13:58:05.604Z,17.67
2022-08-05T14:00:32.336Z,18.40
2022-08-05T14:03:01.462Z,18.13
2022-08-05T14:05:47.919Z,18.58
2022-08-05T14:08:21.325Z,18.24
2022-08-05T14:11:03.171Z,18.36
2022-08-05T14:13:41.332Z,18.38
2022-08-05T14:16:11.082Z,17.81
2022-08-05T14:18:38.143Z,17.45
2022-08-05T14:22:08.525Z,18.45
2022-08-05T14:23:51.723Z,18.55
2022-08-05T14:26:35.699Z,17.86
2022-08-05T14:29:06.197Z,18.70
2022-08-05T14:32:02.999Z,19.24
2022-08-05T14:34:30.131Z,19.02
2022-08-05T14:37:02.539Z,19.18
2022-08-05T14:39:29.540Z,19.47
2022-08-05T14:42:19.085Z,19.40
2022-08-05T14:44:43.105Z,19.54
2022-08-05T14:47:09.855Z,19.61
2022-08-05T14:49:59.112Z,19.55
2022-08-05T14:52:50.554Z,19.51
2022-08-05T14:55:15.347Z,19.47
2022-08-05T14:57:54.275Z,19.79
2022-08-05T15:00:27.757Z,20.03
2022-08-05T15:02:55.438Z,19.53
2022-08-05T15:05:22.313Z,19.47
2022-08-05T15:08:11.295Z,19.39
2022-08-05T15:10:43.514Z,19.20
2022-08-05T15:13:13.053Z,19.25
2022-08-05T15:15:55.842Z,19.94
2022-08-05T15:18:23.478Z,19.98
2022-08-05T15:20:50.336Z,19.76
2022-08-05T15:23:18.317Z,19.66
2022-08-05T15:25:53.789Z,19.48
2022-08-05T15:28:27.781Z,19.38
2022-08-05T15:30:55.000Z,18.83
2022-08-05T15:33:53.707Z,18.24
2022-08-05T15:36:17.812Z,16.96
2022-08-05T15:39:07.623Z,16.16
2022-08-05T15:41:58.353Z,15.96
2022-08-05T15:44:27.940Z,16.33
2022-08-05T15:46:56.941Z,16.57
2022-08-05T15:49:53.781Z,16.65
2022-08-05T15:52:16.401Z,16.88
2022-08-05T15:54:44.017Z,17.15
2022-08-05T15:57:10.982Z,17.35
2022-08-05T15:59:39.247Z,16.98
2022-08-05T16:02:09.526Z,17.31
2022-08-05T16:04:42.427Z,17.97
2022-08-05T16:07:10.551Z,17.80
2022-08-05T16:09:37.788Z,17.94
2022-08-05T16:12:09.529Z,18.22
2022-08-05T16:14:38.249Z,17.93
2022-08-05T16:17:05.134Z,18.23
2022-08-05T16:20:04.843Z,18.19
2022-08-05T16:22:27.598Z,18.03
2022-08-05T16:25:00.562Z,18.57
2022-08-05T16:27:47.127Z,18.83
2022-08-05T16:30:25.974Z,18.62
2022-08-05T16:32:53.655Z,18.73
2022-08-05T16:35:27.711Z,18.69
2022-08-05T16:38:03.582Z,18.46
2022-08-05T16:40:42.642Z,18.32
2022-08-05T16:43:16.592Z,18.47
2022-08-05T16:46:05.011Z,18.25
2022-08-05T16:48:35.086Z,18.50
2022-08-05T16:51:02.288Z,18.60
2022-08-05T16:54:02.220Z,18.65
2022-08-05T16:56:18.903Z,18.29
2022-08-05T16:58:46.526Z,18.82
2022-08-05T17:01:13.359Z,18.35
2022-08-05T17:03:40.541Z,18.38
2022-08-05T17:06:07.838Z,18.14
2022-08-05T17:08:51.964Z,18.27
2022-08-05T17:11:19.656Z,18.36
2022-08-05T17:13:50.426Z,18.71
2022-08-05T17:16:32.480Z,18.52
2022-08-05T17:19:01.012Z,18.67
2022-08-05T17:21:35.490Z,18.28
2022-08-05T17:24:19.778Z,18.90
2022-08-05T17:26:51.310Z,18.67
2022-08-05T17:29:22.729Z,18.74
2022-08-05T17:31:59.779Z,18.45
2022-08-05T17:34:30.028Z,18.65
2022-08-05T17:37:00.313Z,18.80
2022-08-05T17:39:34.656Z,18.26
2022-08-05T17:42:28.611Z,18.70
2022-08-05T17:44:51.118Z,18.07
2022-08-05T17:47:23.077Z,17.93
2022-08-05T17:49:59.780Z,18.15
2022-08-05T17:52:34.130Z,18.00
2022-08-05T17:55:03.083Z,18.06
2022-08-05T17:57:30.274Z,18.09
2022-08-05T18:00:03.483Z,18.29
2022-08-05T18:02:35.740Z,17.99
2022-08-05T18:05:07.604Z,18.01
2022-08-05T18:07:41.796Z,17.93
2022-08-05T18:10:20.331Z,17.98
2022-08-05T18:12:47.962Z,18.02
2022-08-05T18:15:14.804Z,17.70
2022-08-05T18:18:01.034Z,17.76
2022-08-05T18:20:29.246Z,17.51
2022-08-05T18:23:00.654Z,17.34
2022-08-05T18:25:39.118Z,17.07
2022-08-05T18:28:06.729Z,17.06
2022-08-05T18:30:34.323Z,17.42
2022-08-05T18:33:02.155Z,17.67
2022-08-05T18:36:00.043Z,17.54
2022-08-05T18:38:19.427Z,17.39
2022-08-05T18:41:53.730Z,17.21
2022-08-05T18:43:43.139Z,17.14
2022-08-05T18:46:19.947Z,16.76
2022-08-05T18:48:52.620Z,16.92
2022-08-05T18:52:05.714Z,17.06
2022-08-05T18:54:30.916Z,16.82
2022-08-05T18:57:01.604Z,16.57
2022-08-05T18:59:42.666Z,16.94
2022-08-05T19:02:26.428Z,16.98
2022-08-05T19:05:01.652Z,17.26
2022-08-05T19:07:45.191Z,17.29
2022-08-05T19:10:12.277Z,17.44
2022-08-05T19:12:39.066Z,16.97
2022-08-05T19:15:06.530Z,17.22
2022-08-05T19:18:08.838Z,17.56
2022-08-05T19:20:37.109Z,17.44
2022-08-05T19:23:08.730Z,17.59
2022-08-05T19:26:01.625Z,17.29
2022-08-05T19:28:29.374Z,16.76
2022-08-05T19:30:56.124Z,16.35
2022-08-05T19:33:35.185Z,15.94
2022-08-05T19:36:06.198Z,15.99
2022-08-05T19:38:37.418Z,16.42
2022-08-05T19:41:07.353Z,16.38
2022-08-05T19:44:05.476Z,16.21
2022-08-05T19:46:30.433Z,15.99
2022-08-05T19:49:05.299Z,16.10
2022-08-05T19:52:04.615Z,16.29
2022-08-05T19:54:28.448Z,16.10
2022-08-05T19:57:06.255Z,16.17
2022-08-05T19:59:56.195Z,16.17
2022-08-05T20:02:23.012Z,16.08
2022-08-05T20:04:50.064Z,16.10
2022-08-05T20:07:47.835Z,16.33
2022-08-05T20:10:11.724Z,16.32
2022-08-05T20:12:47.625Z,16.32
2022-08-05T20:15:48.468Z,16.34
2022-08-05T20:18:10.042Z,16.27
2022-08-05T20:20:56.623Z,16.49
2022-08-05T20:23:39.928Z,16.40
2022-08-05T20:26:16.485Z,16.47
2022-08-05T20:28:45.799Z,16.47
2022-08-05T20:31:13.786Z,16.27
2022-08-05T20:33:44.557Z,16.30
2022-08-05T20:36:11.791Z,16.42
2022-08-05T20:38:54.166Z,16.29
2022-08-05T20:41:26.980Z,16.38
2022-08-05T20:44:19.085Z,16.17
2022-08-05T20:47:00.862Z,16.28
2022-08-05T20:49:27.778Z,16.21
2022-08-05T20:51:57.345Z,15.98
2022-08-05T20:54:26.151Z,16.02
2022-08-05T20:57:14.456Z,15.87
2022-08-05T20:59:46.240Z,15.88
2022-08-05T21:02:28.347Z,16.01
2022-08-05T21:04:55.420Z,15.72
2022-08-05T21:07:24.127Z,15.91
2022-08-05T21:09:53.802Z,15.90
2022-08-05T21:12:21.739Z,15.91
2022-08-05T21:14:53.965Z,15.67
2022-08-05T21:17:22.102Z,15.82
2022-08-05T21:19:50.428Z,15.78
2022-08-05T21:22:18.630Z,15.86
2022-08-05T21:24:51.931Z,15.71
2022-08-05T21:27:25.097Z,15.71
2022-08-05T21:29:58.286Z,15.78
2022-08-05T21:32:29.286Z,15.81
2022-08-05T21:35:17.541Z,15.82
2022-08-05T21:37:52.774Z,15.56
2022-08-05T21:40:22.448Z,15.63
2022-08-05T21:42:51.934Z,15.36
2022-08-05T21:45:24.646Z,15.43
2022-08-05T21:48:08.163Z,15.37
2022-08-05T21:50:36.768Z,15.51
2022-08-05T21:53:16.240Z,15.41
2022-08-05T21:56:05.543Z,15.31
2022-08-05T21:58:32.200Z,15.40
2022-08-05T22:00:59.787Z,15.33
2022-08-05T22:03:48.238Z,15.25
2022-08-05T22:06:15.891Z,15.35
2022-08-05T22:08:51.649Z,15.42
2022-08-05T22:11:19.399Z,15.28
2022-08-05T22:14:33.775Z,15.37
2022-08-05T22:16:51.814Z,15.36
2022-08-05T22:20:01.157Z,15.20
2022-08-05T22:22:12.904Z,15.00
2022-08-05T22:25:01.577Z,15.17
2022-08-05T22:28:08.942Z,15.17
2022-08-05T22:30:34.938Z,15.13
2022-08-05T22:33:03.381Z,15.09
2022-08-05T22:35:38.611Z,15.17
2022-08-05T22:38:15.364Z,15.11
2022-08-05T22:40:42.237Z,15.03
2022-08-05T22:43:36.567Z,15.30
2022-08-05T22:46:09.060Z,15.17
2022-08-05T22:48:40.144Z,15.06
2022-08-05T22:51:07.866Z,15.02
2022-08-05T22:53:35.762Z,14.43
2022-08-05T22:56:03.020Z,14.93
2022-08-05T22:58:29.725Z,14.75
2022-08-05T23:00:59.674Z,14.68
2022-08-05T23:03:59.085Z,14.64
2022-08-05T23:06:13.059Z,14.31
2022-08-05T23:08:40.228Z,14.28
2022-08-05T23:11:08.634Z,14.27
2022-08-05T23:13:35.507Z,14.17
2022-08-05T23:16:03.959Z,14.44
2022-08-05T23:18:30.652Z,14.22
2022-08-05T23:20:59.100Z,14.35
2022-08-05T23:23:26.162Z,14.32
2022-08-05T23:25:57.038Z,14.21
2022-08-05T23:28:29.167Z,14.18
2022-08-05T23:30:56.026Z,14.07
2022-08-05T23:34:05.140Z,14.20
2022-08-05T23:36:28.560Z,14.29
2022-08-05T23:39:06.577Z,14.38
2022-08-05T23:41:34.382Z,14.29
2022-08-05T23:44:08.879Z,14.16
2022-08-05T23:46:37.439Z,14.17
2022-08-05T23:49:16.171Z,14.07
2022-08-05T23:52:02.839Z,13.90
2022-08-05T23:54:38.120Z,13.88
2022-08-05T23:57:06.261Z,13.81
2022-08-05T23:59:37.574Z,14.04
